sensor_id;sensor_type;location;lat;lon;timestamp;P1;durP1;ratioP1;P2;durP2;ratioP2
11504;SDS011;5809;53.262;10.408;2023-01-28T00:01:21;1.83;;;1.43;;
11504;SDS011;5809;53.262;10.408;2023-01-28T00:03:49;7.10;;;1.80;;
11504;SDS011;5809;53.262;10.408;2023-01-28T00:06:17;5.07;;;1.70;;
11504;SDS011;5809;53.262;10.408;2023-01-28T00:08:45;5.20;;;1.67;;
11504;SDS011;5809;53.262;10.408;2023-01-28T00:11:13;4.00;;;1.70;;
11504;SDS011;5809;53.262;10.408;2023-01-28T00:13:40;2.63;;;1.23;;
11504;SDS011;5809;53.262;10.408;2023-01-28T00:16:07;5.23;;;1.73;;
11504;SDS011;5809;53.262;10.408;2023-01-28T00:18:35;4.07;;;1.33;;
11504;SDS011;5809;53.262;10.408;2023-01-28T00:21:04;2.00;;;1.30;;
11504;SDS011;5809;53.262;10.408;2023-01-28T00:23:34;3.17;;;1.10;;
11504;SDS011;5809;53.262;10.408;2023-01-28T00:26:03;3.13;;;1.27;;
11504;SDS011;5809;53.262;10.408;2023-01-28T00:28:31;4.30;;;1.50;;
11504;SDS011;5809;53.262;10.408;2023-01-28T00:31:04;5.87;;;1.07;;
11504;SDS011;5809;53.262;10.408;2023-01-28T00:33:32;1.53;;;1.00;;
11504;SDS011;5809;53.262;10.408;2023-01-28T00:35:59;2.13;;;1.37;;
11504;SDS011;5809;53.262;10.408;2023-01-28T00:38:26;2.73;;;1.23;;
11504;SDS011;5809;53.262;10.408;2023-01-28T00:40:53;2.07;;;1.37;;
11504;SDS011;5809;53.262;10.408;2023-01-28T00:43:22;2.57;;;1.20;;
11504;SDS011;5809;53.262;10.408;2023-01-28T00:45:49;3.23;;;1.20;;
11504;SDS011;5809;53.262;10.408;2023-01-28T00:48:17;4.77;;;1.23;;
11504;SDS011;5809;53.262;10.408;2023-01-28T00:50:44;2.40;;;1.00;;
11504;SDS011;5809;53.262;10.408;2023-01-28T00:53:11;2.33;;;1.00;;
11504;SDS011;5809;53.262;10.408;2023-01-28T00:55:38;2.73;;;1.20;;
11504;SDS011;5809;53.262;10.408;2023-01-28T00:58:05;2.07;;;1.00;;
11504;SDS011;5809;53.262;10.408;2023-01-28T01:00:34;2.90;;;1.20;;
11504;SDS011;5809;53.262;10.408;2023-01-28T01:03:00;4.90;;;1.53;;
11504;SDS011;5809;53.262;10.408;2023-01-28T01:05:27;5.73;;;1.40;;
11504;SDS011;5809;53.262;10.408;2023-01-28T01:07:55;3.87;;;1.47;;
11504;SDS011;5809;53.262;10.408;2023-01-28T01:10:21;3.57;;;1.17;;
11504;SDS011;5809;53.262;10.408;2023-01-28T01:12:49;3.43;;;1.37;;
11504;SDS011;5809;53.262;10.408;2023-01-28T01:15:16;2.93;;;1.40;;
11504;SDS011;5809;53.262;10.408;2023-01-28T01:17:46;1.73;;;1.10;;
11504;SDS011;5809;53.262;10.408;2023-01-28T01:20:14;1.83;;;1.03;;
11504;SDS011;5809;53.262;10.408;2023-01-28T01:22:42;4.87;;;1.10;;
11504;SDS011;5809;53.262;10.408;2023-01-28T01:25:09;4.90;;;1.50;;
11504;SDS011;5809;53.262;10.408;2023-01-28T01:27:37;2.13;;;1.27;;
11504;SDS011;5809;53.262;10.408;2023-01-28T01:30:05;3.03;;;1.27;;
11504;SDS011;5809;53.262;10.408;2023-01-28T01:32:33;2.03;;;1.17;;
11504;SDS011;5809;53.262;10.408;2023-01-28T01:35:02;3.13;;;1.07;;
11504;SDS011;5809;53.262;10.408;2023-01-28T01:37:31;4.80;;;1.40;;
11504;SDS011;5809;53.262;10.408;2023-01-28T01:39:58;1.87;;;1.40;;
11504;SDS011;5809;53.262;10.408;2023-01-28T01:42:26;2.87;;;1.20;;
11504;SDS011;5809;53.262;10.408;2023-01-28T01:44:57;2.70;;;1.13;;
11504;SDS011;5809;53.262;10.408;2023-01-28T01:47:25;3.10;;;1.53;;
11504;SDS011;5809;53.262;10.408;2023-01-28T01:49:54;2.60;;;1.33;;
11504;SDS011;5809;53.262;10.408;2023-01-28T01:52:24;1.37;;;1.23;;
11504;SDS011;5809;53.262;10.408;2023-01-28T01:54:53;3.23;;;1.20;;
11504;SDS011;5809;53.262;10.408;2023-01-28T01:57:23;4.57;;;1.40;;
11504;SDS011;5809;53.262;10.408;2023-01-28T01:59:54;2.43;;;1.27;;
11504;SDS011;5809;53.262;10.408;2023-01-28T02:02:29;2.73;;;1.20;;
11504;SDS011;5809;53.262;10.408;2023-01-28T02:04:59;2.77;;;1.20;;
11504;SDS011;5809;53.262;10.408;2023-01-28T02:07:28;3.97;;;1.40;;
11504;SDS011;5809;53.262;10.408;2023-01-28T02:09:56;4.83;;;1.63;;
11504;SDS011;5809;53.262;10.408;2023-01-28T02:12:25;3.03;;;1.17;;
11504;SDS011;5809;53.262;10.408;2023-01-28T02:14:53;2.83;;;1.60;;
11504;SDS011;5809;53.262;10.408;2023-01-28T02:17:22;2.17;;;1.23;;
11504;SDS011;5809;53.262;10.408;2023-01-28T02:19:52;3.07;;;1.67;;
11504;SDS011;5809;53.262;10.408;2023-01-28T02:25:22;3.23;;;1.20;;
11504;SDS011;5809;53.262;10.408;2023-01-28T02:28:09;3.57;;;1.43;;
11504;SDS011;5809;53.262;10.408;2023-01-28T02:30:40;3.53;;;1.30;;
11504;SDS011;5809;53.262;10.408;2023-01-28T02:33:13;4.17;;;1.70;;
11504;SDS011;5809;53.262;10.408;2023-01-28T02:35:45;2.67;;;1.70;;
11504;SDS011;5809;53.262;10.408;2023-01-28T02:38:17;4.33;;;1.60;;
11504;SDS011;5809;53.262;10.408;2023-01-28T02:40:47;3.37;;;1.53;;
11504;SDS011;5809;53.262;10.408;2023-01-28T02:43:33;1.70;;;1.27;;
11504;SDS011;5809;53.262;10.408;2023-01-28T02:46:02;1.57;;;1.27;;
11504;SDS011;5809;53.262;10.408;2023-01-28T02:48:52;2.07;;;1.37;;
11504;SDS011;5809;53.262;10.408;2023-01-28T02:51:22;3.10;;;1.53;;
11504;SDS011;5809;53.262;10.408;2023-01-28T02:53:59;3.30;;;1.50;;
11504;SDS011;5809;53.262;10.408;2023-01-28T02:56:31;2.60;;;1.70;;
11504;SDS011;5809;53.262;10.408;2023-01-28T02:59:04;2.93;;;1.40;;
11504;SDS011;5809;53.262;10.408;2023-01-28T03:01:52;4.13;;;1.43;;
11504;SDS011;5809;53.262;10.408;2023-01-28T03:04:25;1.70;;;1.30;;
11504;SDS011;5809;53.262;10.408;2023-01-28T03:06:55;2.50;;;1.60;;
11504;SDS011;5809;53.262;10.408;2023-01-28T03:09:24;4.73;;;1.60;;
11504;SDS011;5809;53.262;10.408;2023-01-28T03:11:53;2.87;;;1.47;;
11504;SDS011;5809;53.262;10.408;2023-01-28T03:14:40;5.67;;;1.60;;
11504;SDS011;5809;53.262;10.408;2023-01-28T03:17:25;4.77;;;1.70;;
11504;SDS011;5809;53.262;10.408;2023-01-28T03:20:15;3.20;;;1.50;;
11504;SDS011;5809;53.262;10.408;2023-01-28T03:23:00;4.33;;;1.40;;
11504;SDS011;5809;53.262;10.408;2023-01-28T03:25:52;2.77;;;1.60;;
11504;SDS011;5809;53.262;10.408;2023-01-28T03:28:38;2.60;;;1.40;;
11504;SDS011;5809;53.262;10.408;2023-01-28T03:31:25;1.80;;;1.20;;
11504;SDS011;5809;53.262;10.408;2023-01-28T03:34:09;4.23;;;1.30;;
11504;SDS011;5809;53.262;10.408;2023-01-28T03:36:54;1.43;;;1.00;;
11504;SDS011;5809;53.262;10.408;2023-01-28T03:39:22;2.50;;;1.30;;
11504;SDS011;5809;53.262;10.408;2023-01-28T03:42:01;2.43;;;1.20;;
11504;SDS011;5809;53.262;10.408;2023-01-28T03:44:29;3.10;;;1.40;;
11504;SDS011;5809;53.262;10.408;2023-01-28T03:47:18;3.07;;;1.40;;
11504;SDS011;5809;53.262;10.408;2023-01-28T03:49:46;3.47;;;1.70;;
11504;SDS011;5809;53.262;10.408;2023-01-28T03:52:14;3.13;;;1.00;;
11504;SDS011;5809;53.262;10.408;2023-01-28T03:54:43;1.93;;;1.20;;
11504;SDS011;5809;53.262;10.408;2023-01-28T03:57:12;2.67;;;1.30;;
11504;SDS011;5809;53.262;10.408;2023-01-28T03:59:39;2.90;;;1.27;;
11504;SDS011;5809;53.262;10.408;2023-01-28T04:02:06;2.47;;;1.23;;
11504;SDS011;5809;53.262;10.408;2023-01-28T04:04:36;3.50;;;1.40;;
11504;SDS011;5809;53.262;10.408;2023-01-28T04:07:04;4.00;;;1.50;;
11504;SDS011;5809;53.262;10.408;2023-01-28T04:09:32;4.07;;;1.20;;
11504;SDS011;5809;53.262;10.408;2023-01-28T04:12:00;3.23;;;1.17;;
11504;SDS011;5809;53.262;10.408;2023-01-28T04:14:27;1.70;;;1.20;;
11504;SDS011;5809;53.262;10.408;2023-01-28T04:16:55;2.80;;;1.23;;
11504;SDS011;5809;53.262;10.408;2023-01-28T04:19:22;4.63;;;1.70;;
11504;SDS011;5809;53.262;10.408;2023-01-28T04:21:51;2.13;;;1.27;;
11504;SDS011;5809;53.262;10.408;2023-01-28T04:24:19;3.53;;;1.30;;
11504;SDS011;5809;53.262;10.408;2023-01-28T04:26:46;4.57;;;1.43;;
11504;SDS011;5809;53.262;10.408;2023-01-28T04:29:13;1.73;;;1.40;;
11504;SDS011;5809;53.262;10.408;2023-01-28T04:31:40;3.33;;;1.20;;
11504;SDS011;5809;53.262;10.408;2023-01-28T04:34:08;2.00;;;1.40;;
11504;SDS011;5809;53.262;10.408;2023-01-28T04:36:35;3.23;;;1.23;;
11504;SDS011;5809;53.262;10.408;2023-01-28T04:39:03;2.23;;;1.40;;
11504;SDS011;5809;53.262;10.408;2023-01-28T04:41:30;3.37;;;1.60;;
11504;SDS011;5809;53.262;10.408;2023-01-28T04:43:58;1.73;;;1.40;;
11504;SDS011;5809;53.262;10.408;2023-01-28T04:46:25;3.27;;;1.40;;
11504;SDS011;5809;53.262;10.408;2023-01-28T04:48:52;2.37;;;1.20;;
11504;SDS011;5809;53.262;10.408;2023-01-28T04:51:19;3.67;;;1.30;;
11504;SDS011;5809;53.262;10.408;2023-01-28T04:53:46;2.47;;;1.30;;
11504;SDS011;5809;53.262;10.408;2023-01-28T04:56:14;2.87;;;1.57;;
11504;SDS011;5809;53.262;10.408;2023-01-28T04:58:42;3.53;;;1.63;;
11504;SDS011;5809;53.262;10.408;2023-01-28T05:01:09;3.53;;;1.43;;
11504;SDS011;5809;53.262;10.408;2023-01-28T05:03:36;3.20;;;1.23;;
11504;SDS011;5809;53.262;10.408;2023-01-28T05:06:03;3.13;;;1.50;;
11504;SDS011;5809;53.262;10.408;2023-01-28T05:08:31;2.60;;;1.40;;
11504;SDS011;5809;53.262;10.408;2023-01-28T05:10:58;2.97;;;1.53;;
11504;SDS011;5809;53.262;10.408;2023-01-28T05:13:26;5.67;;;1.63;;
11504;SDS011;5809;53.262;10.408;2023-01-28T05:15:53;1.70;;;1.30;;
11504;SDS011;5809;53.262;10.408;2023-01-28T05:18:21;1.63;;;1.30;;
11504;SDS011;5809;53.262;10.408;2023-01-28T05:20:48;2.87;;;1.60;;
11504;SDS011;5809;53.262;10.408;2023-01-28T05:23:15;1.77;;;1.33;;
11504;SDS011;5809;53.262;10.408;2023-01-28T05:25:42;5.13;;;1.77;;
11504;SDS011;5809;53.262;10.408;2023-01-28T05:28:09;3.03;;;1.70;;
11504;SDS011;5809;53.262;10.408;2023-01-28T05:30:37;3.97;;;1.90;;
11504;SDS011;5809;53.262;10.408;2023-01-28T05:33:05;6.03;;;1.90;;
11504;SDS011;5809;53.262;10.408;2023-01-28T05:35:31;2.47;;;1.80;;
11504;SDS011;5809;53.262;10.408;2023-01-28T05:38:00;4.03;;;2.00;;
11504;SDS011;5809;53.262;10.408;2023-01-28T05:40:27;3.83;;;2.00;;
11504;SDS011;5809;53.262;10.408;2023-01-28T05:42:54;4.00;;;1.90;;
11504;SDS011;5809;53.262;10.408;2023-01-28T05:45:22;3.20;;;2.00;;
11504;SDS011;5809;53.262;10.408;2023-01-28T05:47:50;4.03;;;2.00;;
11504;SDS011;5809;53.262;10.408;2023-01-28T05:50:17;3.73;;;1.83;;
11504;SDS011;5809;53.262;10.408;2023-01-28T05:52:44;2.87;;;1.70;;
11504;SDS011;5809;53.262;10.408;2023-01-28T05:55:11;2.43;;;1.60;;
11504;SDS011;5809;53.262;10.408;2023-01-28T05:57:39;4.13;;;1.50;;
11504;SDS011;5809;53.262;10.408;2023-01-28T06:00:06;2.43;;;1.50;;
11504;SDS011;5809;53.262;10.408;2023-01-28T06:02:34;2.77;;;1.20;;
11504;SDS011;5809;53.262;10.408;2023-01-28T06:05:02;4.57;;;2.20;;
11504;SDS011;5809;53.262;10.408;2023-01-28T06:07:30;2.47;;;1.50;;
11504;SDS011;5809;53.262;10.408;2023-01-28T06:09:57;2.13;;;1.30;;
11504;SDS011;5809;53.262;10.408;2023-01-28T06:12:24;3.90;;;1.73;;
11504;SDS011;5809;53.262;10.408;2023-01-28T06:14:51;2.50;;;1.60;;
11504;SDS011;5809;53.262;10.408;2023-01-28T06:17:19;2.83;;;1.83;;
11504;SDS011;5809;53.262;10.408;2023-01-28T06:19:46;3.60;;;1.50;;
11504;SDS011;5809;53.262;10.408;2023-01-28T06:22:14;3.40;;;1.80;;
11504;SDS011;5809;53.262;10.408;2023-01-28T06:24:41;4.67;;;1.60;;
11504;SDS011;5809;53.262;10.408;2023-01-28T06:27:08;2.57;;;1.40;;
11504;SDS011;5809;53.262;10.408;2023-01-28T06:29:36;6.53;;;1.93;;
11504;SDS011;5809;53.262;10.408;2023-01-28T06:32:03;2.53;;;1.60;;
11504;SDS011;5809;53.262;10.408;2023-01-28T06:34:31;5.10;;;1.83;;
11504;SDS011;5809;53.262;10.408;2023-01-28T06:36:58;4.43;;;1.50;;
11504;SDS011;5809;53.262;10.408;2023-01-28T06:39:27;4.33;;;2.00;;
11504;SDS011;5809;53.262;10.408;2023-01-28T06:41:55;3.70;;;1.80;;
11504;SDS011;5809;53.262;10.408;2023-01-28T06:44:22;5.07;;;1.70;;
11504;SDS011;5809;53.262;10.408;2023-01-28T06:46:50;2.83;;;1.80;;
11504;SDS011;5809;53.262;10.408;2023-01-28T06:49:17;3.83;;;1.93;;
11504;SDS011;5809;53.262;10.408;2023-01-28T06:51:44;4.73;;;2.07;;
11504;SDS011;5809;53.262;10.408;2023-01-28T06:54:11;6.67;;;1.90;;
11504;SDS011;5809;53.262;10.408;2023-01-28T06:56:40;2.67;;;1.83;;
11504;SDS011;5809;53.262;10.408;2023-01-28T06:59:08;2.43;;;1.80;;
11504;SDS011;5809;53.262;10.408;2023-01-28T07:01:35;3.20;;;1.77;;
11504;SDS011;5809;53.262;10.408;2023-01-28T07:04:02;2.73;;;1.47;;
11504;SDS011;5809;53.262;10.408;2023-01-28T07:06:30;2.43;;;1.97;;
11504;SDS011;5809;53.262;10.408;2023-01-28T07:08:57;4.77;;;1.97;;
11504;SDS011;5809;53.262;10.408;2023-01-28T07:11:23;2.63;;;1.60;;
11504;SDS011;5809;53.262;10.408;2023-01-28T07:13:52;3.47;;;2.10;;
11504;SDS011;5809;53.262;10.408;2023-01-28T07:16:19;3.47;;;1.80;;
11504;SDS011;5809;53.262;10.408;2023-01-28T07:18:47;4.30;;;1.93;;
11504;SDS011;5809;53.262;10.408;2023-01-28T07:21:15;3.93;;;1.97;;
11504;SDS011;5809;53.262;10.408;2023-01-28T07:23:42;4.10;;;1.93;;
11504;SDS011;5809;53.262;10.408;2023-01-28T07:26:09;2.23;;;1.53;;
11504;SDS011;5809;53.262;10.408;2023-01-28T07:28:36;3.20;;;2.00;;
11504;SDS011;5809;53.262;10.408;2023-01-28T07:31:05;3.43;;;1.83;;
11504;SDS011;5809;53.262;10.408;2023-01-28T07:33:32;4.90;;;2.00;;
11504;SDS011;5809;53.262;10.408;2023-01-28T07:35:59;5.67;;;1.90;;
11504;SDS011;5809;53.262;10.408;2023-01-28T07:38:26;4.73;;;2.10;;
11504;SDS011;5809;53.262;10.408;2023-01-28T07:40:53;4.53;;;2.10;;
11504;SDS011;5809;53.262;10.408;2023-01-28T07:43:20;5.83;;;2.63;;
11504;SDS011;5809;53.262;10.408;2023-01-28T07:45:47;3.43;;;2.23;;
11504;SDS011;5809;53.262;10.408;2023-01-28T07:48:16;3.87;;;2.40;;
11504;SDS011;5809;53.262;10.408;2023-01-28T07:50:43;4.13;;;2.50;;
11504;SDS011;5809;53.262;10.408;2023-01-28T07:53:12;3.50;;;2.10;;
11504;SDS011;5809;53.262;10.408;2023-01-28T07:55:39;6.17;;;2.33;;
11504;SDS011;5809;53.262;10.408;2023-01-28T07:58:07;3.13;;;2.10;;
11504;SDS011;5809;53.262;10.408;2023-01-28T08:00:35;4.93;;;2.50;;
11504;SDS011;5809;53.262;10.408;2023-01-28T08:03:03;3.80;;;2.20;;
11504;SDS011;5809;53.262;10.408;2023-01-28T08:05:35;3.60;;;1.97;;
11504;SDS011;5809;53.262;10.408;2023-01-28T08:08:05;3.20;;;1.90;;
11504;SDS011;5809;53.262;10.408;2023-01-28T08:10:33;4.27;;;1.90;;
11504;SDS011;5809;53.262;10.408;2023-01-28T08:13:00;3.53;;;2.23;;
11504;SDS011;5809;53.262;10.408;2023-01-28T08:15:28;4.83;;;2.10;;
11504;SDS011;5809;53.262;10.408;2023-01-28T08:17:56;5.00;;;2.30;;
11504;SDS011;5809;53.262;10.408;2023-01-28T08:20:24;4.40;;;2.17;;
11504;SDS011;5809;53.262;10.408;2023-01-28T08:23:02;3.63;;;2.47;;
11504;SDS011;5809;53.262;10.408;2023-01-28T08:25:31;4.10;;;2.40;;
11504;SDS011;5809;53.262;10.408;2023-01-28T08:28:00;2.87;;;1.93;;
11504;SDS011;5809;53.262;10.408;2023-01-28T08:30:27;3.50;;;2.13;;
11504;SDS011;5809;53.262;10.408;2023-01-28T08:32:55;5.77;;;1.97;;
11504;SDS011;5809;53.262;10.408;2023-01-28T08:35:23;2.80;;;1.90;;
11504;SDS011;5809;53.262;10.408;2023-01-28T08:37:50;3.67;;;2.13;;
11504;SDS011;5809;53.262;10.408;2023-01-28T08:40:19;3.57;;;1.93;;
11504;SDS011;5809;53.262;10.408;2023-01-28T08:42:46;2.43;;;1.90;;
11504;SDS011;5809;53.262;10.408;2023-01-28T08:45:14;2.87;;;1.60;;
11504;SDS011;5809;53.262;10.408;2023-01-28T08:47:46;3.03;;;1.87;;
11504;SDS011;5809;53.262;10.408;2023-01-28T08:50:14;4.53;;;2.20;;
11504;SDS011;5809;53.262;10.408;2023-01-28T08:52:41;2.47;;;1.80;;
11504;SDS011;5809;53.262;10.408;2023-01-28T08:55:08;4.13;;;1.90;;
11504;SDS011;5809;53.262;10.408;2023-01-28T08:57:37;3.13;;;2.13;;
11504;SDS011;5809;53.262;10.408;2023-01-28T09:00:05;3.90;;;2.60;;
11504;SDS011;5809;53.262;10.408;2023-01-28T09:02:34;3.57;;;1.87;;
11504;SDS011;5809;53.262;10.408;2023-01-28T09:05:02;4.23;;;1.90;;
11504;SDS011;5809;53.262;10.408;2023-01-28T09:07:29;5.73;;;2.30;;
11504;SDS011;5809;53.262;10.408;2023-01-28T09:09:57;2.37;;;1.90;;
11504;SDS011;5809;53.262;10.408;2023-01-28T09:12:24;4.33;;;1.97;;
11504;SDS011;5809;53.262;10.408;2023-01-28T09:14:52;4.23;;;1.90;;
11504;SDS011;5809;53.262;10.408;2023-01-28T09:17:20;5.40;;;2.00;;
11504;SDS011;5809;53.262;10.408;2023-01-28T09:19:47;3.10;;;1.83;;
11504;SDS011;5809;53.262;10.408;2023-01-28T09:22:14;3.63;;;1.83;;
11504;SDS011;5809;53.262;10.408;2023-01-28T09:24:42;5.50;;;1.70;;
11504;SDS011;5809;53.262;10.408;2023-01-28T09:27:09;3.73;;;1.77;;
11504;SDS011;5809;53.262;10.408;2023-01-28T09:29:36;4.67;;;1.73;;
11504;SDS011;5809;53.262;10.408;2023-01-28T09:32:05;2.47;;;1.83;;
11504;SDS011;5809;53.262;10.408;2023-01-28T09:34:34;3.47;;;1.63;;
11504;SDS011;5809;53.262;10.408;2023-01-28T09:37:01;2.20;;;1.40;;
11504;SDS011;5809;53.262;10.408;2023-01-28T09:39:28;3.57;;;1.90;;
11504;SDS011;5809;53.262;10.408;2023-01-28T09:41:59;2.97;;;1.80;;
11504;SDS011;5809;53.262;10.408;2023-01-28T09:44:42;3.97;;;1.87;;
11504;SDS011;5809;53.262;10.408;2023-01-28T09:47:21;3.47;;;1.80;;
11504;SDS011;5809;53.262;10.408;2023-01-28T09:49:52;3.33;;;1.80;;
11504;SDS011;5809;53.262;10.408;2023-01-28T09:52:22;4.47;;;1.43;;
11504;SDS011;5809;53.262;10.408;2023-01-28T09:54:51;4.67;;;1.80;;
11504;SDS011;5809;53.262;10.408;2023-01-28T09:57:25;3.13;;;1.70;;
11504;SDS011;5809;53.262;10.408;2023-01-28T09:59:56;3.50;;;1.90;;
11504;SDS011;5809;53.262;10.408;2023-01-28T10:02:30;3.57;;;1.70;;
11504;SDS011;5809;53.262;10.408;2023-01-28T10:05:09;3.43;;;1.60;;
11504;SDS011;5809;53.262;10.408;2023-01-28T10:07:44;2.53;;;1.83;;
11504;SDS011;5809;53.262;10.408;2023-01-28T10:10:21;5.30;;;2.37;;
11504;SDS011;5809;53.262;10.408;2023-01-28T10:12:57;7.37;;;2.20;;
11504;SDS011;5809;53.262;10.408;2023-01-28T10:15:44;3.47;;;2.60;;
11504;SDS011;5809;53.262;10.408;2023-01-28T10:18:19;4.87;;;2.80;;
11504;SDS011;5809;53.262;10.408;2023-01-28T10:20:54;4.13;;;2.40;;
11504;SDS011;5809;53.262;10.408;2023-01-28T10:23:28;4.50;;;2.40;;
11504;SDS011;5809;53.262;10.408;2023-01-28T10:26:06;5.10;;;2.80;;
11504;SDS011;5809;53.262;10.408;2023-01-28T10:28:40;5.77;;;3.43;;
11504;SDS011;5809;53.262;10.408;2023-01-28T10:31:10;4.80;;;3.10;;
11504;SDS011;5809;53.262;10.408;2023-01-28T10:33:39;3.30;;;3.00;;
11504;SDS011;5809;53.262;10.408;2023-01-28T10:36:06;5.97;;;3.50;;
11504;SDS011;5809;53.262;10.408;2023-01-28T10:38:35;5.43;;;3.30;;
11504;SDS011;5809;53.262;10.408;2023-01-28T10:41:02;4.67;;;3.37;;
11504;SDS011;5809;53.262;10.408;2023-01-28T10:43:31;6.77;;;4.27;;
11504;SDS011;5809;53.262;10.408;2023-01-28T10:46:01;5.87;;;4.13;;
11504;SDS011;5809;53.262;10.408;2023-01-28T10:48:33;6.00;;;3.93;;
11504;SDS011;5809;53.262;10.408;2023-01-28T10:51:05;6.47;;;3.80;;
11504;SDS011;5809;53.262;10.408;2023-01-28T10:53:33;4.43;;;3.53;;
11504;SDS011;5809;53.262;10.408;2023-01-28T10:56:01;5.60;;;3.87;;
11504;SDS011;5809;53.262;10.408;2023-01-28T10:58:30;5.13;;;4.20;;
11504;SDS011;5809;53.262;10.408;2023-01-28T11:01:00;5.20;;;3.33;;
11504;SDS011;5809;53.262;10.408;2023-01-28T11:03:28;5.40;;;3.50;;
11504;SDS011;5809;53.262;10.408;2023-01-28T11:05:56;5.20;;;3.80;;
11504;SDS011;5809;53.262;10.408;2023-01-28T11:08:26;5.97;;;3.50;;
11504;SDS011;5809;53.262;10.408;2023-01-28T11:10:54;3.10;;;2.80;;
11504;SDS011;5809;53.262;10.408;2023-01-28T11:13:22;4.40;;;2.83;;
11504;SDS011;5809;53.262;10.408;2023-01-28T11:15:51;5.27;;;2.90;;
11504;SDS011;5809;53.262;10.408;2023-01-28T11:18:20;5.93;;;3.10;;
11504;SDS011;5809;53.262;10.408;2023-01-28T11:20:50;2.87;;;2.40;;
11504;SDS011;5809;53.262;10.408;2023-01-28T11:23:21;3.30;;;2.57;;
11504;SDS011;5809;53.262;10.408;2023-01-28T11:25:59;3.05;;;2.40;;
11504;SDS011;5809;53.262;10.408;2023-01-28T11:28:29;3.58;;;2.60;;
11504;SDS011;5809;53.262;10.408;2023-01-28T11:30:57;5.35;;;2.97;;
11504;SDS011;5809;53.262;10.408;2023-01-28T11:33:29;3.20;;;2.70;;
11504;SDS011;5809;53.262;10.408;2023-01-28T11:36:03;5.13;;;2.90;;
11504;SDS011;5809;53.262;10.408;2023-01-28T11:38:33;4.93;;;3.53;;
11504;SDS011;5809;53.262;10.408;2023-01-28T11:41:02;3.67;;;2.90;;
11504;SDS011;5809;53.262;10.408;2023-01-28T11:43:29;4.10;;;2.80;;
11504;SDS011;5809;53.262;10.408;2023-01-28T11:45:59;6.10;;;2.97;;
11504;SDS011;5809;53.262;10.408;2023-01-28T11:48:40;4.60;;;3.10;;
11504;SDS011;5809;53.262;10.408;2023-01-28T11:51:19;3.93;;;3.20;;
11504;SDS011;5809;53.262;10.408;2023-01-28T11:53:58;3.23;;;2.63;;
11504;SDS011;5809;53.262;10.408;2023-01-28T11:56:44;3.70;;;2.60;;
11504;SDS011;5809;53.262;10.408;2023-01-28T11:59:20;3.50;;;2.40;;
11504;SDS011;5809;53.262;10.408;2023-01-28T12:02:03;4.10;;;2.33;;
11504;SDS011;5809;53.262;10.408;2023-01-28T12:04:49;3.73;;;2.70;;
11504;SDS011;5809;53.262;10.408;2023-01-28T12:07:32;3.20;;;2.80;;
11504;SDS011;5809;53.262;10.408;2023-01-28T12:10:08;5.90;;;2.47;;
11504;SDS011;5809;53.262;10.408;2023-01-28T12:12:48;3.47;;;2.38;;
11504;SDS011;5809;53.262;10.408;2023-01-28T12:15:45;7.30;;;2.85;;
11504;SDS011;5809;53.262;10.408;2023-01-28T12:18:38;3.88;;;2.50;;
11504;SDS011;5809;53.262;10.408;2023-01-28T12:21:26;4.80;;;2.58;;
11504;SDS011;5809;53.262;10.408;2023-01-28T12:24:06;3.80;;;2.75;;
11504;SDS011;5809;53.262;10.408;2023-01-28T12:26:43;3.30;;;2.50;;
11504;SDS011;5809;53.262;10.408;2023-01-28T12:29:20;3.65;;;2.47;;
11504;SDS011;5809;53.262;10.408;2023-01-28T12:31:59;2.67;;;2.20;;
11504;SDS011;5809;53.262;10.408;2023-01-28T12:34:39;4.55;;;2.80;;
11504;SDS011;5809;53.262;10.408;2023-01-28T12:37:21;3.80;;;2.30;;
11504;SDS011;5809;53.262;10.408;2023-01-28T12:40:02;4.95;;;3.00;;
11504;SDS011;5809;53.262;10.408;2023-01-28T12:42:38;4.47;;;2.30;;
11504;SDS011;5809;53.262;10.408;2023-01-28T12:45:13;2.50;;;2.10;;
11504;SDS011;5809;53.262;10.408;2023-01-28T12:47:46;3.58;;;2.78;;
11504;SDS011;5809;53.262;10.408;2023-01-28T12:50:17;4.35;;;3.05;;
11504;SDS011;5809;53.262;10.408;2023-01-28T12:52:49;4.00;;;2.80;;
11504;SDS011;5809;53.262;10.408;2023-01-28T12:55:21;3.42;;;2.47;;
11504;SDS011;5809;53.262;10.408;2023-01-28T12:58:01;3.22;;;2.60;;
11504;SDS011;5809;53.262;10.408;2023-01-28T13:00:34;3.33;;;2.67;;
11504;SDS011;5809;53.262;10.408;2023-01-28T13:03:08;4.45;;;2.83;;
11504;SDS011;5809;53.262;10.408;2023-01-28T13:05:42;2.97;;;2.65;;
11504;SDS011;5809;53.262;10.408;2023-01-28T13:08:14;3.08;;;2.60;;
11504;SDS011;5809;53.262;10.408;2023-01-28T13:10:47;3.20;;;2.60;;
11504;SDS011;5809;53.262;10.408;2023-01-28T13:13:17;5.43;;;2.78;;
11504;SDS011;5809;53.262;10.408;2023-01-28T13:15:51;3.72;;;2.92;;
11504;SDS011;5809;53.262;10.408;2023-01-28T13:18:32;4.82;;;2.50;;
11504;SDS011;5809;53.262;10.408;2023-01-28T13:21:11;3.47;;;2.60;;
11504;SDS011;5809;53.262;10.408;2023-01-28T13:23:42;4.70;;;2.97;;
11504;SDS011;5809;53.262;10.408;2023-01-28T13:26:11;3.60;;;2.72;;
11504;SDS011;5809;53.262;10.408;2023-01-28T13:29:05;3.38;;;2.50;;
11504;SDS011;5809;53.262;10.408;2023-01-28T13:31:39;6.25;;;2.85;;
11504;SDS011;5809;53.262;10.408;2023-01-28T13:34:08;3.75;;;2.58;;
11504;SDS011;5809;53.262;10.408;2023-01-28T13:36:51;3.90;;;2.50;;
11504;SDS011;5809;53.262;10.408;2023-01-28T13:39:20;5.35;;;2.60;;
11504;SDS011;5809;53.262;10.408;2023-01-28T13:41:47;4.60;;;2.60;;
11504;SDS011;5809;53.262;10.408;2023-01-28T13:44:19;4.07;;;2.45;;
11504;SDS011;5809;53.262;10.408;2023-01-28T13:46:53;4.00;;;2.70;;
11504;SDS011;5809;53.262;10.408;2023-01-28T13:49:23;3.30;;;2.65;;
11504;SDS011;5809;53.262;10.408;2023-01-28T13:51:58;3.55;;;2.50;;
11504;SDS011;5809;53.262;10.408;2023-01-28T13:54:32;3.83;;;2.58;;
11504;SDS011;5809;53.262;10.408;2023-01-28T13:57:15;4.63;;;2.53;;
11504;SDS011;5809;53.262;10.408;2023-01-28T14:00:05;4.65;;;2.83;;
11504;SDS011;5809;53.262;10.408;2023-01-28T14:02:43;5.78;;;2.53;;
11504;SDS011;5809;53.262;10.408;2023-01-28T14:05:38;4.00;;;2.85;;
11504;SDS011;5809;53.262;10.408;2023-01-28T14:08:33;3.95;;;2.40;;
11504;SDS011;5809;53.262;10.408;2023-01-28T14:11:30;8.02;;;2.80;;
11504;SDS011;5809;53.262;10.408;2023-01-28T14:17:32;2.90;;;2.50;;
11504;SDS011;5809;53.262;10.408;2023-01-28T14:20:12;3.60;;;2.85;;
11504;SDS011;5809;53.262;10.408;2023-01-28T14:22:44;4.95;;;2.85;;
11504;SDS011;5809;53.262;10.408;2023-01-28T14:25:11;5.20;;;2.80;;
11504;SDS011;5809;53.262;10.408;2023-01-28T14:27:42;4.95;;;2.88;;
11504;SDS011;5809;53.262;10.408;2023-01-28T14:30:14;4.82;;;2.80;;
11504;SDS011;5809;53.262;10.408;2023-01-28T14:32:48;3.80;;;2.58;;
11504;SDS011;5809;53.262;10.408;2023-01-28T14:35:20;3.90;;;3.00;;
11504;SDS011;5809;53.262;10.408;2023-01-28T14:37:53;5.43;;;3.25;;
11504;SDS011;5809;53.262;10.408;2023-01-28T14:40:21;3.78;;;2.90;;
11504;SDS011;5809;53.262;10.408;2023-01-28T14:42:49;6.10;;;3.38;;
11504;SDS011;5809;53.262;10.408;2023-01-28T14:45:22;5.20;;;3.05;;
11504;SDS011;5809;53.262;10.408;2023-01-28T14:48:00;5.97;;;3.20;;
11504;SDS011;5809;53.262;10.408;2023-01-28T14:50:52;5.57;;;3.75;;
11504;SDS011;5809;53.262;10.408;2023-01-28T14:56:36;5.13;;;3.30;;
11504;SDS011;5809;53.262;10.408;2023-01-28T14:59:14;4.53;;;2.90;;
11504;SDS011;5809;53.262;10.408;2023-01-28T15:01:43;7.13;;;3.70;;
11504;SDS011;5809;53.262;10.408;2023-01-28T15:04:20;5.13;;;3.40;;
11504;SDS011;5809;53.262;10.408;2023-01-28T15:06:49;5.87;;;3.60;;
11504;SDS011;5809;53.262;10.408;2023-01-28T15:09:17;7.10;;;3.20;;
11504;SDS011;5809;53.262;10.408;2023-01-28T15:11:44;4.20;;;3.13;;
11504;SDS011;5809;53.262;10.408;2023-01-28T15:14:13;10.07;;;4.30;;
11504;SDS011;5809;53.262;10.408;2023-01-28T15:16:45;8.83;;;4.80;;
11504;SDS011;5809;53.262;10.408;2023-01-28T15:19:14;5.20;;;4.53;;
11504;SDS011;5809;53.262;10.408;2023-01-28T15:21:41;8.03;;;5.50;;